Time;durP1;ratioP1;P1;durP2;ratioP2;P2;SDS_P1;SDS_P2;PMS_P1;PMS_P2;Temp;Humidity;BMP_temperature;BMP_pressure;BME280_temperature;BME280_humidity;BME280_pressure;Samples;Min_cycle;Max_cycle;Signal;HPM_P1;HPM_P2
2022/01/25 00:10:26;;;;;;;33.67;20.63;;;;;;;1.17;100.00;103217.03;2107924;28;20075;-68
2022/01/25 00:24:14;;;;;;;31.63;19.40;;;;;;;1.13;100.00;103216.06;2108189;28;20040;-69
2022/01/25 00:25:06;;;;;;;34.75;21.73;;;;;;;1.34;100.00;103221.09;2108288;28;20028;-70
2022/01/25 00:26:23;;;;;;;35.65;20.67;;;;;;;1.35;100.00;103221.94;2107742;28;20023;-69
2022/01/25 00:29:36;;;;;;;38.30;22.42;;;;;;;1.38;100.00;103222.94;2107507;28;20496;-69
2022/01/25 00:30:57;;;;;;;36.92;23.65;;;;;;;1.37;100.00;103217.75;2107609;28;20495;-69
2022/01/25 00:31:57;;;;;;;34.65;20.17;;;;;;;1.36;100.00;103218.56;2106890;28;20477;-70
2022/01/25 00:32:57;;;;;;;32.63;20.97;;;;;;;1.38;100.00;103222.94;2106904;28;20027;-69
2022/01/25 00:33:58;;;;;;;33.80;21.67;;;;;;;1.37;100.00;103221.19;2106990;28;20414;-70
2022/01/25 00:34:58;;;;;;;36.30;21.27;;;;;;;1.38;100.00;103228.09;2107660;28;20103;-70
2022/01/25 00:36:00;;;;;;;35.13;22.50;;;;;;;1.36;100.00;103218.56;2107649;28;20464;-70
2022/01/25 00:37:01;;;;;;;35.20;21.75;;;;;;;1.34;100.00;103221.09;2107523;28;20435;-70
2022/01/25 00:38:01;;;;;;;31.17;20.03;;;;;;;1.33;100.00;103224.47;2107498;28;20035;-70
2022/01/25 00:39:03;;;;;;;36.63;23.47;;;;;;;1.34;100.00;103226.25;2107500;28;20087;-70
2022/01/25 00:40:04;;;;;;;36.40;23.80;;;;;;;1.34;100.00;103225.34;2107493;28;20071;-70
2022/01/25 00:41:05;;;;;;;42.45;25.27;;;;;;;1.34;100.00;103227.94;2106863;28;20036;-69
2022/01/25 00:42:06;;;;;;;39.83;24.10;;;;;;;1.34;100.00;103228.81;2106978;28;20032;-69
2022/01/25 00:43:06;;;;;;;38.15;24.58;;;;;;;1.34;100.00;103226.25;2106566;28;20458;-70
2022/01/25 00:44:06;;;;;;;37.33;23.17;;;;;;;1.36;100.00;103226.28;2098422;28;20028;-69
2022/01/25 00:45:10;;;;;;;42.80;25.23;;;;;;;1.39;100.00;103231.53;2106824;28;20036;-70
2022/01/25 00:46:11;;;;;;;41.67;25.23;;;;;;;1.39;100.00;103223.81;2107432;28;20409;-70
2022/01/25 00:47:12;;;;;;;41.22;24.98;;;;;;;1.38;100.00;103216.91;2107480;28;20023;-70
2022/01/25 00:48:18;;;;;;;40.40;25.20;;;;;;;1.39;100.00;103228.94;2106785;28;20137;-70
2022/01/25 00:49:27;;;;;;;37.17;24.20;;;;;;;1.39;100.00;103223.81;2106874;28;20024;-70
2022/01/25 00:50:31;;;;;;;41.35;24.15;;;;;;;1.39;100.00;103218.66;2107388;28;20431;-70
2022/01/25 00:53:55;;;;;;;39.10;24.10;;;;;;;1.42;100.00;103218.78;2107326;28;20054;-70
2022/01/25 00:54:58;;;;;;;37.05;24.05;;;;;;;1.44;100.00;103222.28;2107070;28;20024;-69
2022/01/25 00:55:58;;;;;;;39.03;24.17;;;;;;;1.45;100.00;103218.00;2106680;28;20572;-70
2022/01/25 00:57:00;;;;;;;39.67;24.67;;;;;;;1.46;100.00;103219.75;2106741;28;20032;-69
2022/01/25 00:58:01;;;;;;;38.65;25.50;;;;;;;1.47;100.00;103214.66;2106627;28;20058;-70
2022/01/25 00:59:07;;;;;;;42.30;25.42;;;;;;;1.47;100.00;103214.66;2106668;28;20060;-69
2022/01/25 01:00:10;;;;;;;39.38;24.10;;;;;;;1.50;100.00;103213.88;2107283;28;20024;-69
2022/01/25 01:01:10;;;;;;;43.25;25.55;;;;;;;1.51;100.00;103207.94;2107285;28;20028;-69
2022/01/25 01:02:12;;;;;;;44.28;26.83;;;;;;;1.50;100.00;103208.72;2107292;28;20031;-69
2022/01/25 01:03:12;;;;;;;41.00;25.25;;;;;;;1.51;100.00;103213.94;2107301;28;20031;-69
2022/01/25 01:04:13;;;;;;;43.10;25.97;;;;;;;1.52;100.00;103207.97;2107314;28;20035;-69
2022/01/25 01:05:14;;;;;;;44.03;24.75;;;;;;;1.56;100.00;103210.63;2106551;28;20106;-70
2022/01/25 01:06:15;;;;;;;41.93;26.83;;;;;;;1.58;100.00;103217.59;2106616;28;20086;-70
2022/01/25 01:07:16;;;;;;;39.03;24.98;;;;;;;1.59;100.00;103210.75;2107233;28;20027;-70
2022/01/25 01:08:17;;;;;;;;;;;;;;;1.60;100.00;103210.78;2107647;28;20028;-69
2022/01/25 01:09:20;;;;;;;41.38;24.60;;;;;;;1.59;100.00;103208.16;2106549;28;19915;-70
2022/01/25 01:10:23;;;;;;;43.30;25.70;;;;;;;1.60;100.00;103212.47;2106632;28;20035;-69
2022/01/25 01:11:32;;;;;;;43.42;25.27;;;;;;;1.60;100.00;103215.94;2107211;28;20127;-69
2022/01/25 01:15:40;;;;;;;40.60;24.37;;;;;;;1.62;100.00;103218.56;2107271;28;20044;-69
2022/01/25 01:16:43;;;;;;;42.22;23.83;;;;;;;1.61;100.00;103216.84;2096138;28;20036;-69
2022/01/25 01:29:33;;;;;;;40.80;22.60;;;;;;;1.68;100.00;103216.22;2107199;28;20044;-70
2022/01/25 01:41:51;;;;;;;41.53;22.75;;;;;;;1.67;100.00;103214.44;2081121;28;20029;-69
2022/01/25 01:43:13;;;;;;;45.47;24.48;;;;;;;1.69;100.00;103229.94;2072805;28;20192;-70
2022/01/25 01:44:21;;;;;;;45.25;24.08;;;;;;;1.73;100.00;103221.50;2093513;28;20048;-69
2022/01/25 01:47:44;;;;;;;45.85;26.65;;;;;;;1.70;100.00;103222.28;2107095;28;20156;-69
2022/01/25 01:49:46;;;;;;;43.40;25.83;;;;;;;1.70;100.00;103224.84;2107000;28;20524;-70
2022/01/25 01:50:46;;;;;;;45.17;25.70;;;;;;;1.70;100.00;103224.84;2106833;28;20107;-70
2022/01/25 01:51:49;;;;;;;42.67;26.43;;;;;;;1.73;100.00;103224.94;2106914;28;20512;-70
2022/01/25 01:52:49;;;;;;;44.90;26.50;;;;;;;1.75;100.00;103220.72;2106904;28;20024;-70
2022/01/25 01:53:49;;;;;;;45.23;25.97;;;;;;;1.76;100.00;103230.22;2106956;28;20044;-70
2022/01/25 01:54:49;;;;;;;41.20;25.67;;;;;;;1.75;100.00;103225.00;2106200;28;20153;-70
2022/01/25 01:55:50;;;;;;;45.07;27.47;;;;;;;1.71;100.00;103221.44;2106856;28;20489;-70
2022/01/25 01:56:50;;;;;;;46.50;26.08;;;;;;;1.72;100.00;103222.31;2106899;28;20487;-70
2022/01/25 01:57:52;;;;;;;47.27;27.23;;;;;;;1.73;100.00;103224.94;2106906;28;20020;-70
2022/01/25 01:58:55;;;;;;;43.95;25.92;;;;;;;1.75;100.00;103237.88;2106891;28;20042;-70
2022/01/25 01:59:56;;;;;;;42.22;25.08;;;;;;;1.74;100.00;103228.41;2106776;28;20031;-70
2022/01/25 02:00:56;;;;;;;44.80;27.17;;;;;;;1.73;100.00;103227.53;2106821;28;20027;-70
2022/01/25 02:01:57;;;;;;;47.55;27.13;;;;;;;1.74;100.00;103228.41;2106735;28;20032;-70
2022/01/25 02:02:59;;;;;;;43.53;26.70;;;;;;;1.73;100.00;103227.53;2106953;28;20134;-70
2022/01/25 02:04:01;;;;;;;45.63;26.83;;;;;;;1.73;100.00;103231.78;2106841;28;20036;-69
2022/01/25 02:05:01;;;;;;;45.60;28.05;;;;;;;1.71;100.00;103228.31;2106738;28;20058;-69
2022/01/25 02:06:02;;;;;;;40.95;26.20;;;;;;;1.70;100.00;103232.56;2106845;28;20032;-70
2022/01/25 02:07:03;;;;;;;47.88;27.30;;;;;;;1.69;100.00;103228.25;2106707;28;20035;-70
2022/01/25 02:08:04;;;;;;;48.35;29.73;;;;;;;1.67;100.00;103228.19;2106780;28;20056;-69
2022/01/25 02:09:07;;;;;;;46.13;28.35;;;;;;;1.67;100.00;103230.78;2106075;28;20097;-69
2022/01/25 02:10:08;;;;;;;45.13;26.63;;;;;;;1.67;100.00;103229.88;2106182;28;20019;-70
2022/01/25 02:11:09;;;;;;;44.33;27.23;;;;;;;1.67;100.00;103229.88;2106774;28;20032;-70
2022/01/25 02:12:10;;;;;;;44.20;27.63;;;;;;;1.69;100.00;103225.69;2106723;28;20019;-69
2022/01/25 02:13:11;;;;;;;45.30;26.60;;;;;;;1.69;100.00;103217.97;2106793;28;20036;-69
2022/01/25 02:14:13;;;;;;;52.33;28.70;;;;;;;1.67;100.00;103214.44;2105981;28;20077;-70
2022/01/25 02:15:14;;;;;;;44.60;26.95;;;;;;;1.66;100.00;103212.69;2106143;28;20472;-70
2022/01/25 02:17:09;;;;;;;47.70;27.15;;;;;;;1.67;100.00;103214.44;2106667;28;20044;-70
2022/01/25 02:22:49;;;;;;;42.22;24.33;;;;;;;1.76;100.00;103219.03;2106724;28;20465;-69
2022/01/25 02:23:49;;;;;;;55.93;26.23;;;;;;;1.78;100.00;103213.09;2106708;28;20039;-69
2022/01/25 02:24:50;;;;;;;46.63;26.13;;;;;;;1.79;100.00;103212.25;2106656;28;20453;-69
2022/01/25 02:25:56;;;;;;;47.80;27.87;;;;;;;1.83;100.00;103209.78;2106773;28;20103;-69
2022/01/25 02:26:57;;;;;;;45.28;25.95;;;;;;;1.82;100.00;103208.06;2105907;28;20049;-69
2022/01/25 02:27:57;;;;;;;44.33;25.55;;;;;;;1.83;100.00;103217.53;2106032;28;20035;-69
2022/01/25 02:28:57;;;;;;;48.10;26.67;;;;;;;1.85;100.00;103213.31;2105934;28;20420;-69
2022/01/25 02:29:58;;;;;;;46.50;27.10;;;;;;;1.86;100.00;103215.94;2105917;28;20040;-69
2022/01/25 02:30:59;;;;;;;48.13;27.53;;;;;;;1.86;100.00;103212.47;2106009;28;20370;-69
2022/01/25 02:32:01;;;;;;;47.85;27.90;;;;;;;1.83;100.00;103208.09;2106591;28;20028;-69
2022/01/25 02:33:01;;;;;;;44.35;26.55;;;;;;;1.79;100.00;103214.84;2106621;28;20441;-68
2022/01/25 02:34:02;;;;;;;49.13;28.60;;;;;;;1.78;100.00;103202.78;2105899;28;20152;-69
2022/01/25 02:35:03;;;;;;;45.47;27.10;;;;;;;1.78;100.00;103204.53;2106052;28;20044;-69
2022/01/25 02:36:09;;;;;;;47.83;27.63;;;;;;;1.76;100.00;103214.75;2106595;28;20119;-69
2022/01/25 02:37:12;;;;;;;47.22;27.13;;;;;;;1.78;100.00;103213.09;2105916;28;20028;-69
2022/01/25 02:38:14;;;;;;;41.40;25.85;;;;;;;1.78;100.00;103207.94;2105970;28;20035;-69
2022/01/25 02:39:14;;;;;;;45.97;27.05;;;;;;;1.77;100.00;103205.31;2106625;28;20035;-70
2022/01/25 02:40:14;;;;;;;47.60;27.23;;;;;;;1.76;100.00;103201.00;2106477;28;20390;-69
2022/01/25 02:41:15;;;;;;;45.73;26.83;;;;;;;1.74;100.00;103198.38;2106659;28;20024;-70
2022/01/25 02:42:16;;;;;;;50.10;29.23;;;;;;;1.73;100.00;103196.63;2106648;28;20035;-70
2022/01/25 02:43:19;;;;;;;43.55;26.63;;;;;;;1.71;100.00;103190.53;2106507;28;20129;-69
2022/01/25 02:44:26;;;;;;;49.83;29.73;;;;;;;1.72;100.00;103192.31;2106641;28;20024;-70
2022/01/25 02:45:32;;;;;;;51.80;29.40;;;;;;;1.73;100.00;103188.91;2106567;28;20020;-69
2022/01/25 02:48:56;;;;;;;51.08;25.83;;;;;;;1.75;100.00;103182.09;2106591;28;20385;-70
2022/01/25 02:49:57;;;;;;;49.25;26.88;;;;;;;1.76;100.00;103194.16;2106530;28;20385;-70
2022/01/25 02:51:01;;;;;;;48.63;26.73;;;;;;;1.75;100.00;103192.41;2106565;28;20103;-69
2022/01/25 02:52:04;;;;;;;41.53;25.30;;;;;;;1.72;100.00;103187.16;2105911;28;20032;-69
2022/01/25 02:53:04;;;;;;;52.45;29.98;;;;;;;1.70;100.00;103188.81;2105917;28;20031;-71
2022/01/25 02:54:08;;;;;;;48.53;27.73;;;;;;;1.71;100.00;103190.53;2106533;28;20484;-70
2022/01/25 02:55:08;;;;;;;45.85;27.88;;;;;;;1.70;100.00;103187.91;2106303;28;20056;-69
2022/01/25 02:56:08;;;;;;;48.08;27.63;;;;;;;1.70;100.00;103182.78;2106619;28;20118;-70
2022/01/25 02:57:09;;;;;;;50.67;29.13;;;;;;;1.69;100.00;103187.06;2106563;28;20036;-69
2022/01/25 02:58:09;;;;;;;52.90;31.63;;;;;;;1.70;100.00;103188.81;2106593;28;20043;-69
2022/01/25 02:59:12;;;;;;;45.17;27.33;;;;;;;1.69;100.00;103187.06;2106605;28;20027;-70
2022/01/25 03:00:14;;;;;;;49.45;28.08;;;;;;;1.70;100.00;103193.94;2105653;28;20383;-69
2022/01/25 03:01:15;;;;;;;49.35;29.27;;;;;;;1.71;100.00;103195.69;2105902;28;20058;-69
2022/01/25 03:02:17;;;;;;;50.45;28.42;;;;;;;1.71;100.00;103190.53;2106472;28;20024;-69
2022/01/25 03:03:17;;;;;;;44.75;26.13;;;;;;;1.74;100.00;103192.38;2105851;28;20050;-69
2022/01/25 03:04:20;;;;;;;51.03;29.00;;;;;;;1.73;100.00;103188.91;2105865;28;20040;-70
2022/01/25 03:05:20;;;;;;;47.70;27.45;;;;;;;1.72;100.00;103188.84;2106414;28;20059;-70
2022/01/25 03:06:22;;;;;;;50.80;29.20;;;;;;;1.72;100.00;103182.03;2106527;28;20397;-69
2022/01/25 03:07:23;;;;;;;51.15;29.45;;;;;;;1.75;100.00;103184.66;2107573;28;20103;-70
2022/01/25 03:08:23;;;;;;;47.50;28.33;;;;;;;1.79;100.00;103183.94;2108203;28;20339;-69
2022/01/25 03:09:24;;;;;;;58.57;29.93;;;;;;;1.82;100.00;103188.34;2108231;28;20016;-70
2022/01/25 03:10:34;;;;;;;46.75;28.80;;;;;;;1.83;100.00;103184.03;2108184;28;20540;-69
2022/01/25 03:11:35;;;;;;;51.10;29.20;;;;;;;1.83;100.00;103181.47;2108218;28;20525;-70
2022/01/25 03:12:49;;;;;;;52.22;29.08;;;;;;;1.80;100.00;103180.56;2108185;28;20052;-70
2022/01/25 03:13:52;;;;;;;46.75;27.17;;;;;;;1.80;100.00;103190.88;2108260;28;20050;-69
2022/01/25 03:15:11;;;;;;;47.25;28.60;;;;;;;1.82;100.00;103192.59;2108180;28;20028;-69
2022/01/25 03:16:19;;;;;;;49.85;27.65;;;;;;;1.83;100.00;103184.03;2108217;28;20472;-70
2022/01/25 03:17:25;;;;;;;47.85;27.08;;;;;;;1.83;100.00;103178.91;2108169;28;20024;-69
2022/01/25 03:21:01;;;;;;;49.65;27.30;;;;;;;1.78;100.00;103187.34;2108299;28;20123;-69
2022/01/25 03:21:55;;;;;;;47.95;27.17;;;;;;;1.78;100.00;103176.19;2107521;28;20482;-69
2022/01/25 03:23:57;;;;;;;45.43;26.47;;;;;;;1.76;100.00;103177.84;2108265;28;20446;-69
2022/01/25 03:24:57;;;;;;;;;;;;;;;1.78;100.00;103174.47;2108537;28;20024;-70
2022/01/25 03:25:58;;;;;;;50.20;25.40;;;;;;;1.79;100.00;103171.06;2108071;28;19909;-69
2022/01/25 03:26:58;;;;;;;46.30;26.70;;;;;;;1.82;100.00;103164.28;2107494;28;20116;-70
2022/01/25 03:27:59;;;;;;;47.10;26.97;;;;;;;1.85;100.00;103159.22;2107453;28;20039;-69
2022/01/25 03:29:00;;;;;;;49.97;27.80;;;;;;;1.87;100.00;103167.88;2107452;28;20023;-69
2022/01/25 03:30:00;;;;;;;51.65;28.85;;;;;;;1.88;100.00;103160.19;2108079;28;20045;-69
2022/01/25 03:31:00;;;;;;;51.30;28.90;;;;;;;1.92;100.00;103161.19;2108162;28;20015;-69
2022/01/25 03:32:01;;;;;;;52.27;29.97;;;;;;;1.96;99.88;103164.72;2107959;28;20492;-70
2022/01/25 03:33:01;;;;;;;53.67;30.97;;;;;;;1.97;99.21;103162.19;2108064;28;20032;-69
2022/01/25 03:34:02;;;;;;;52.63;29.67;;;;;;;1.98;98.55;103158.78;2107356;28;20733;-70
2022/01/25 03:35:02;;;;;;;49.70;26.95;;;;;;;1.98;98.70;103163.06;2107439;28;20039;-69
2022/01/25 03:36:04;;;;;;;54.60;30.53;;;;;;;2.01;98.23;103169.19;2108049;28;20431;-69
2022/01/25 03:37:04;;;;;;;51.50;29.05;;;;;;;2.03;97.93;103157.25;2107303;28;20028;-70
2022/01/25 03:38:05;;;;;;;51.28;28.27;;;;;;;2.05;98.13;103165.88;2107372;28;20500;-70
2022/01/25 03:39:06;;;;;;;49.73;28.57;;;;;;;2.04;98.65;103164.13;2108067;28;20032;-70
2022/01/25 03:40:08;;;;;;;51.83;29.83;;;;;;;2.02;99.16;103165.78;2107197;28;20292;-69
2022/01/25 03:41:11;;;;;;;52.80;30.58;;;;;;;2.00;99.26;103161.41;2107320;28;20036;-69
2022/01/25 03:42:14;;;;;;;52.35;29.13;;;;;;;1.98;99.61;103158.78;2107942;28;20032;-70
2022/01/25 03:43:17;;;;;;;54.05;30.67;;;;;;;1.94;99.84;103156.94;2107400;28;20218;-70
2022/01/25 03:44:18;;;;;;;57.58;29.55;;;;;;;1.92;99.53;103149.16;2099134;28;20490;-70
2022/01/25 03:45:20;;;;;;;54.37;30.53;;;;;;;1.92;99.68;103153.44;2107403;28;20020;-69
2022/01/25 03:47:42;;;;;;;51.03;29.63;;;;;;;2.00;98.72;103157.13;2107454;28;20109;-70
2022/01/25 03:50:00;;;;;;;51.42;30.15;;;;;;;2.01;98.40;103164.03;2108068;28;20028;-70
2022/01/25 03:51:01;;;;;;;54.47;30.70;;;;;;;2.01;99.13;103168.28;2107192;28;20024;-69
2022/01/25 03:52:02;;;;;;;48.80;28.07;;;;;;;1.99;98.74;103164.81;2107282;28;20023;-70
2022/01/25 03:53:02;;;;;;;54.47;30.42;;;;;;;1.98;98.69;103163.94;2107152;28;20028;-70
2022/01/25 03:54:03;;;;;;;55.47;29.13;;;;;;;1.98;98.99;103165.66;2107286;28;20131;-69
2022/01/25 03:55:05;;;;;;;50.33;28.20;;;;;;;1.96;99.37;103163.03;2107808;28;20050;-69
2022/01/25 03:56:06;;;;;;;54.45;30.38;;;;;;;1.96;99.03;103165.59;2107840;28;20024;-69
2022/01/25 03:57:06;;;;;;;54.90;31.10;;;;;;;1.98;99.17;103168.22;2107843;28;20111;-69
2022/01/25 03:58:07;;;;;;;53.28;29.83;;;;;;;1.96;99.37;103165.59;2107866;28;20024;-69
2022/01/25 03:59:08;;;;;;;55.45;30.10;;;;;;;1.95;99.39;103175.84;2107819;28;20039;-69
2022/01/25 04:00:10;;;;;;;57.07;32.17;;;;;;;1.92;98.93;103164.59;2107136;28;20027;-70
2022/01/25 04:01:10;;;;;;;53.38;30.80;;;;;;;1.92;98.94;103158.59;2098939;28;20275;-70
2022/01/25 04:02:12;;;;;;;56.43;32.37;;;;;;;1.94;98.56;103164.66;2107153;28;20435;-70
2022/01/25 04:03:27;;;;;;;;;;;;;;;1.98;99.19;103168.22;2108252;28;20048;-69
2022/01/25 04:04:29;;;;;;;52.00;27.73;;;;;;;1.99;97.95;103165.66;2107789;28;19912;-69
2022/01/25 04:05:47;;;;;;;50.58;29.00;;;;;;;2.04;97.00;103168.41;2107787;28;20024;-70
2022/01/25 04:06:51;;;;;;;54.13;29.13;;;;;;;2.11;96.32;103174.59;2107803;28;20100;-69
2022/01/25 04:07:52;;;;;;;52.20;28.77;;;;;;;2.12;96.40;103176.38;2107742;28;20016;-69
2022/01/25 04:08:52;;;;;;;52.42;27.98;;;;;;;2.12;97.11;103173.81;2107682;28;20030;-70
2022/01/25 04:09:52;;;;;;;50.23;30.50;;;;;;;2.09;97.81;103171.13;2107755;28;20016;-70
2022/01/25 04:10:53;;;;;;;49.73;27.87;;;;;;;2.06;98.27;103167.63;2107723;28;20027;-70
2022/01/25 04:11:53;;;;;;;51.30;28.97;;;;;;;2.03;98.80;103171.81;2107716;28;20493;-69
2022/01/25 04:12:53;;;;;;;54.87;30.23;;;;;;;2.00;98.82;103167.44;2107715;28;20066;-70
2022/01/25 04:13:56;;;;;;;56.90;31.87;;;;;;;1.98;98.68;103163.94;2106950;28;20395;-69
2022/01/25 04:14:56;;;;;;;54.85;30.58;;;;;;;2.00;98.48;103171.69;2098822;28;20025;-70
2022/01/25 04:15:59;;;;;;;52.07;29.87;;;;;;;1.99;98.85;103170.81;2106986;28;20020;-69
2022/01/25 04:17:06;;;;;;;58.80;31.45;;;;;;;2.00;98.72;103177.75;2107720;28;20020;-69
2022/01/25 04:19:17;;;;;;;55.50;29.27;;;;;;;2.00;97.55;103176.84;2107723;28;20082;-69
2022/01/25 04:20:31;;;;;;;51.40;28.02;;;;;;;2.02;99.05;103181.22;2107464;28;20057;-69
2022/01/25 04:25:14;;;;;;;51.53;27.67;;;;;;;2.08;96.86;103174.53;2107531;28;20027;-70
2022/01/25 04:26:14;;;;;;;54.08;29.45;;;;;;;2.08;96.76;103170.22;2107449;28;20035;-69
2022/01/25 04:27:15;;;;;;;53.43;29.80;;;;;;;2.09;96.05;103171.13;2107667;28;20035;-69
2022/01/25 04:28:15;;;;;;;54.77;29.50;;;;;;;2.13;95.74;103170.38;2107556;28;20077;-69
2022/01/25 04:29:16;;;;;;;52.87;31.43;;;;;;;2.13;96.23;103168.69;2106918;28;20465;-69
2022/01/25 04:30:16;;;;;;;53.90;29.55;;;;;;;2.12;95.94;103161.78;2107001;28;20086;-69
2022/01/25 04:31:19;;;;;;;59.97;33.43;;;;;;;2.13;96.22;103167.81;2106917;28;20051;-69
2022/01/25 04:32:30;;;;;;;50.83;30.00;;;;;;;2.13;96.19;103160.09;2106906;28;20020;-69
2022/01/25 04:33:40;;;;;;;58.92;32.78;;;;;;;2.13;95.59;103163.53;2107039;28;20028;-69
2022/01/25 04:34:45;;;;;;;52.17;28.90;;;;;;;2.16;95.40;103166.19;2107007;28;20473;-69
2022/01/25 04:36:12;;;;;;;55.08;31.25;;;;;;;2.17;95.28;103164.50;2106843;28;20115;-69
2022/01/25 04:50:28;;;;;;;56.75;30.48;;;;;;;2.12;95.79;103155.75;2083436;28;20030;-68
2022/01/25 04:52:47;;;;;;;54.13;28.13;;;;;;;2.18;95.68;103161.09;2107573;28;20480;-70
2022/01/25 04:53:59;;;;;;;57.67;30.55;;;;;;;2.18;94.89;103158.50;2107446;28;20081;-69
2022/01/25 04:55:12;;;;;;;60.70;30.83;;;;;;;2.16;95.93;103161.03;2107086;28;20031;-69
2022/01/25 04:56:21;;;;;;;55.47;28.23;;;;;;;2.14;95.44;103159.25;2107409;28;20024;-69
2022/01/25 04:58:40;;;;;;;54.58;28.02;;;;;;;2.13;95.39;103162.66;2107528;28;20047;-69
2022/01/25 05:00:53;;;;;;;56.03;30.75;;;;;;;2.17;94.74;103151.63;2106845;28;20069;-69
2022/01/25 05:01:59;;;;;;;57.72;31.38;;;;;;;2.15;95.01;103154.13;2107346;28;20522;-70
2022/01/25 05:03:13;;;;;;;55.25;32.22;;;;;;;2.16;95.21;103158.47;2107350;28;20084;-69
2022/01/25 05:04:20;;;;;;;59.17;31.85;;;;;;;2.17;95.54;103157.66;2107327;28;20066;-70
2022/01/25 05:06:29;;;;;;;63.40;34.22;;;;;;;2.21;94.82;103148.31;2107452;28;20506;-70
2022/01/25 05:09:34;;;;;;;59.80;32.27;;;;;;;2.24;94.08;103156.13;2107192;28;20111;-70
2022/01/25 05:10:46;;;;;;;54.67;31.52;;;;;;;2.24;94.24;103155.25;2107303;28;20385;-70
2022/01/25 05:11:49;;;;;;;59.92;30.20;;;;;;;2.22;94.31;103150.03;2107227;28;20488;-70
2022/01/25 05:13:08;;;;;;;56.55;31.38;;;;;;;2.21;95.15;103150.88;2107268;28;20042;-70
2022/01/25 05:14:17;;;;;;;55.80;30.05;;;;;;;2.19;94.90;103148.25;2107185;28;20020;-70
2022/01/25 05:17:37;;;;;;;62.78;31.67;;;;;;;2.22;93.90;103152.63;2107155;28;20294;-70
2022/01/25 05:18:42;;;;;;;57.92;31.85;;;;;;;2.23;93.68;103151.81;2107255;28;20094;-70
2022/01/25 05:22:28;;;;;;;65.30;31.35;;;;;;;2.25;93.19;103150.13;2107264;28;20036;-70
2022/01/25 05:23:29;;;;;;;51.15;28.45;;;;;;;2.24;93.69;103145.81;2107241;28;20331;-70
2022/01/25 05:24:31;;;;;;;65.30;32.95;;;;;;;2.24;93.45;103155.25;2107115;28;20166;-70
2022/01/25 05:25:31;;;;;;;;;;;;;;;2.25;93.87;103146.69;2107589;28;20074;-70
2022/01/25 05:26:31;;;;;;;53.47;27.73;;;;;;;2.24;93.72;103150.97;2107056;28;19908;-70
2022/01/25 05:27:31;;;;;;;57.13;28.93;;;;;;;2.26;93.07;103149.31;2107129;28;20023;-70
2022/01/25 05:28:32;;;;;;;58.20;30.07;;;;;;;2.27;93.52;103152.75;2107131;28;20463;-70
2022/01/25 05:29:32;;;;;;;58.35;30.35;;;;;;;2.24;94.48;103156.13;2106377;28;20036;-70
2022/01/25 05:30:33;;;;;;;54.60;29.67;;;;;;;2.19;94.71;103152.56;2106937;28;20452;-69
2022/01/25 05:31:34;;;;;;;59.40;32.03;;;;;;;2.19;94.05;103153.41;2107124;28;20270;-69
2022/01/25 05:32:35;;;;;;;61.70;33.63;;;;;;;2.21;93.71;103150.00;2107026;28;20126;-70
2022/01/25 05:33:35;;;;;;;58.33;32.27;;;;;;;2.23;93.05;103148.34;2106948;28;20366;-69
2022/01/25 05:34:36;;;;;;;61.20;33.27;;;;;;;2.25;92.59;103150.13;2107097;28;20496;-69
2022/01/25 05:35:36;;;;;;;59.75;30.90;;;;;;;2.27;92.77;103150.19;2107003;28;20098;-69
2022/01/25 05:36:37;;;;;;;58.57;32.10;;;;;;;2.25;93.91;103144.09;2106993;28;20111;-69
2022/01/25 05:37:41;;;;;;;;;;;;;;;2.25;93.35;103152.72;2107450;28;20477;-69
2022/01/25 05:38:43;;;;;;;55.65;27.02;;;;;;;2.25;93.46;103146.69;2106891;28;19908;-69
2022/01/25 05:39:46;;;;;;;49.72;25.23;;;;;;;2.23;93.45;103146.66;2106288;28;20024;-70
2022/01/25 05:40:55;;;;;;;60.58;32.55;;;;;;;2.23;93.91;103141.50;2106301;28;20515;-69
2022/01/25 05:42:18;;;;;;;60.75;30.40;;;;;;;2.24;93.40;103144.94;2106484;28;20102;-69
2022/01/25 05:47:14;;;;;;;54.45;29.38;;;;;;;2.24;93.89;103144.94;2107092;28;20043;-69
2022/01/25 05:48:14;;;;;;;56.03;30.65;;;;;;;2.24;93.79;103144.94;2106958;28;20054;-70
2022/01/25 05:49:15;;;;;;;61.97;31.67;;;;;;;2.22;93.89;103144.88;2106886;28;20027;-69
2022/01/25 05:50:15;;;;;;;57.03;30.03;;;;;;;2.22;94.51;103146.63;2106176;28;20016;-69
2022/01/25 05:51:15;;;;;;;54.83;30.47;;;;;;;2.19;94.78;103142.25;2106355;28;20059;-69
2022/01/25 05:52:16;;;;;;;52.73;29.93;;;;;;;2.17;94.09;103141.31;2106866;28;20089;-69
2022/01/25 05:53:16;;;;;;;55.33;30.87;;;;;;;2.18;94.31;103143.06;2106916;28;20028;-69
2022/01/25 05:54:16;;;;;;;63.63;32.97;;;;;;;2.19;94.22;103142.25;2106979;28;20691;-69
2022/01/25 05:55:17;;;;;;;51.03;28.50;;;;;;;2.21;93.26;103145.72;2106062;28;20048;-68
2022/01/25 05:56:17;;;;;;;43.67;26.93;;;;;;;2.21;92.06;103145.72;2106164;28;20040;-70
2022/01/25 05:57:18;;;;;;;59.10;29.80;;;;;;;2.24;93.04;103152.66;2106177;28;20026;-69
2022/01/25 05:58:19;;;;;;;52.40;29.65;;;;;;;2.25;93.26;103147.56;2106799;28;20545;-70
2022/01/25 05:59:19;;;;;;;57.83;32.13;;;;;;;2.26;93.20;103146.72;2106219;28;20135;-70
2022/01/25 06:00:20;;;;;;;59.90;31.83;;;;;;;2.25;93.48;103151.81;2106229;28;20028;-68
2022/01/25 06:01:20;;;;;;;52.42;29.45;;;;;;;2.23;93.56;103144.09;2106854;28;20036;-69
2022/01/25 06:02:23;;;;;;;55.63;32.00;;;;;;;2.21;94.06;103138.00;2106827;28;20470;-70
2022/01/25 06:03:23;;;;;;;54.53;29.80;;;;;;;2.19;93.42;103137.09;2106846;28;20389;-69
2022/01/25 06:04:24;;;;;;;62.03;33.27;;;;;;;2.19;92.97;103139.66;2106846;28;20048;-69
2022/01/25 06:05:25;;;;;;;53.65;28.88;;;;;;;2.22;93.11;103142.31;2106746;28;20020;-69
2022/01/25 06:06:25;;;;;;;57.20;29.97;;;;;;;2.25;92.88;103141.53;2106826;28;20020;-69
2022/01/25 06:07:26;;;;;;;54.80;30.43;;;;;;;2.26;92.50;103139.00;2106707;28;20059;-69
2022/01/25 06:08:27;;;;;;;;;;;;;;;2.27;93.09;103138.19;2106588;28;20024;-69
2022/01/25 06:09:27;;;;;;;48.10;25.30;;;;;;;2.25;94.15;103137.25;2106186;28;19914;-69
2022/01/25 06:10:27;;;;;;;57.07;29.30;;;;;;;2.25;93.89;103146.69;2106709;28;20016;-69
2022/01/25 06:11:28;;;;;;;53.80;28.90;;;;;;;2.23;95.05;103145.78;2106052;28;20085;-69
2022/01/25 06:12:28;;;;;;;55.50;29.20;;;;;;;2.23;94.25;103138.94;2106200;28;20042;-69
2022/01/25 06:13:28;;;;;;;53.90;27.67;;;;;;;2.22;95.26;103136.31;2106105;28;20055;-70
2022/01/25 06:14:28;;;;;;;53.63;29.80;;;;;;;2.19;95.54;103139.66;2106117;28;20040;-69
2022/01/25 06:15:29;;;;;;;56.80;29.77;;;;;;;2.15;95.04;103140.38;2106710;28;20118;-69
2022/01/25 06:16:29;;;;;;;57.13;30.73;;;;;;;2.14;94.92;103130.91;2106024;28;20065;-70
2022/01/25 06:17:29;;;;;;;57.40;30.02;;;;;;;2.13;94.37;103137.78;2106114;28;20028;-70
2022/01/25 06:18:30;;;;;;;56.07;29.90;;;;;;;2.16;93.59;103131.84;2106726;28;20529;-69
2022/01/25 06:19:30;;;;;;;54.70;28.67;;;;;;;2.18;93.60;103140.47;2106671;28;20382;-70
2022/01/25 06:20:32;;;;;;;50.37;29.40;;;;;;;2.19;93.51;103139.66;2106718;28;20024;-69
2022/01/25 06:21:32;;;;;;;53.15;29.50;;;;;;;2.21;92.52;103144.84;2105954;28;20413;-69
2022/01/25 06:22:33;;;;;;;54.87;30.90;;;;;;;2.22;93.58;103139.72;2106103;28;20061;-70
2022/01/25 06:23:33;;;;;;;52.07;29.43;;;;;;;2.22;94.00;103144.03;2106704;28;20581;-71
2022/01/25 06:24:33;;;;;;;56.00;30.27;;;;;;;2.20;94.03;103138.84;2106812;28;20020;-69
2022/01/25 06:25:34;;;;;;;52.97;28.77;;;;;;;2.20;93.40;103144.00;2106707;28;20028;-69
2022/01/25 06:26:35;;;;;;;46.47;26.50;;;;;;;2.21;93.31;103143.16;2106720;28;20071;-69
2022/01/25 06:27:35;;;;;;;50.50;28.50;;;;;;;2.20;93.39;103136.25;2106008;28;20075;-69
2022/01/25 06:28:35;;;;;;;53.63;29.77;;;;;;;2.22;93.29;103141.47;2106054;28;20055;-69
2022/01/25 06:29:35;;;;;;;51.53;28.30;;;;;;;2.22;93.43;103144.88;2106669;28;20036;-69
2022/01/25 06:30:36;;;;;;;51.60;28.10;;;;;;;2.21;92.89;103148.31;2106028;28;20020;-69